sensor_id;sensor_type;location;lat;lon;timestamp;temperature;humidity
39033;DHT22;24794;51.982;5.878;2024-03-08T00:00:58;5.40;99.90
39033;DHT22;24794;51.982;5.878;2024-03-08T00:01:59;5.40;99.90
39033;DHT22;24794;51.982;5.878;2024-03-08T00:02:59;5.30;99.90
39033;DHT22;24794;51.982;5.878;2024-03-08T00:04:02;5.30;99.90
39033;DHT22;24794;51.982;5.878;2024-03-08T00:05:04;5.30;99.90
39033;DHT22;24794;51.982;5.878;2024-03-08T00:06:05;5.30;99.90
39033;DHT22;24794;51.982;5.878;2024-03-08T00:07:06;5.30;99.90
39033;DHT22;24794;51.982;5.878;2024-03-08T00:08:07;5.30;99.90
39033;DHT22;24794;51.982;5.878;2024-03-08T00:09:10;5.30;99.90
39033;DHT22;24794;51.982;5.878;2024-03-08T00:10:12;5.30;99.90
39033;DHT22;24794;51.982;5.878;2024-03-08T00:11:13;5.30;99.90
39033;DHT22;24794;51.982;5.878;2024-03-08T00:12:14;5.30;99.90
39033;DHT22;24794;51.982;5.878;2024-03-08T00:13:14;5.30;99.90
39033;DHT22;24794;51.982;5.878;2024-03-08T00:14:15;5.30;99.90
39033;DHT22;24794;51.982;5.878;2024-03-08T00:15:17;5.30;99.90
39033;DHT22;24794;51.982;5.878;2024-03-08T00:16:17;5.30;99.90
39033;DHT22;24794;51.982;5.878;2024-03-08T00:17:20;5.30;99.90
39033;DHT22;24794;51.982;5.878;2024-03-08T00:18:22;5.30;99.90
39033;DHT22;24794;51.982;5.878;2024-03-08T00:19:23;5.30;99.90
39033;DHT22;24794;51.982;5.878;2024-03-08T00:20:23;5.30;99.90
39033;DHT22;24794;51.982;5.878;2024-03-08T00:21:24;5.30;99.90
39033;DHT22;24794;51.982;5.878;2024-03-08T00:22:25;5.20;99.90
39033;DHT22;24794;51.982;5.878;2024-03-08T00:23:25;5.20;99.90
39033;DHT22;24794;51.982;5.878;2024-03-08T00:24:26;5.20;99.90
39033;DHT22;24794;51.982;5.878;2024-03-08T00:25:28;5.20;99.90
39033;DHT22;24794;51.982;5.878;2024-03-08T00:26:28;5.20;99.90
39033;DHT22;24794;51.982;5.878;2024-03-08T00:27:30;5.20;99.90
39033;DHT22;24794;51.982;5.878;2024-03-08T00:28:31;5.30;99.90
39033;DHT22;24794;51.982;5.878;2024-03-08T00:29:31;5.30;99.90
39033;DHT22;24794;51.982;5.878;2024-03-08T00:30:32;5.30;99.90
39033;DHT22;24794;51.982;5.878;2024-03-08T00:31:32;5.30;99.90
39033;DHT22;24794;51.982;5.878;2024-03-08T00:32:33;5.30;99.90
39033;DHT22;24794;51.982;5.878;2024-03-08T00:33:34;5.30;99.90
39033;DHT22;24794;51.982;5.878;2024-03-08T00:34:37;5.20;99.90
39033;DHT22;24794;51.982;5.878;2024-03-08T00:35:38;5.30;99.90
39033;DHT22;24794;51.982;5.878;2024-03-08T00:36:38;5.20;99.90
39033;DHT22;24794;51.982;5.878;2024-03-08T00:37:39;5.20;99.90
39033;DHT22;24794;51.982;5.878;2024-03-08T00:38:39;5.20;99.90
39033;DHT22;24794;51.982;5.878;2024-03-08T00:39:40;5.20;99.90
39033;DHT22;24794;51.982;5.878;2024-03-08T00:40:41;5.20;99.90
39033;DHT22;24794;51.982;5.878;2024-03-08T00:41:41;5.20;99.90
39033;DHT22;24794;51.982;5.878;2024-03-08T00:42:42;5.10;99.90
39033;DHT22;24794;51.982;5.878;2024-03-08T00:43:43;5.10;99.90
39033;DHT22;24794;51.982;5.878;2024-03-08T00:44:44;5.10;99.90
39033;DHT22;24794;51.982;5.878;2024-03-08T00:45:45;5.10;99.90
39033;DHT22;24794;51.982;5.878;2024-03-08T00:46:45;5.10;99.90
39033;DHT22;24794;51.982;5.878;2024-03-08T00:47:46;5.10;99.90
39033;DHT22;24794;51.982;5.878;2024-03-08T00:48:46;5.10;99.90
39033;DHT22;24794;51.982;5.878;2024-03-08T00:49:47;5.10;99.90
39033;DHT22;24794;51.982;5.878;2024-03-08T00:50:48;5.10;99.90
39033;DHT22;24794;51.982;5.878;2024-03-08T00:51:48;5.10;99.90
39033;DHT22;24794;51.982;5.878;2024-03-08T00:52:49;5.00;99.90
39033;DHT22;24794;51.982;5.878;2024-03-08T00:53:50;5.10;99.90
39033;DHT22;24794;51.982;5.878;2024-03-08T00:54:51;5.00;99.90
39033;DHT22;24794;51.982;5.878;2024-03-08T00:55:51;5.00;99.90
39033;DHT22;24794;51.982;5.878;2024-03-08T00:56:52;5.00;99.90
39033;DHT22;24794;51.982;5.878;2024-03-08T00:57:52;5.00;99.90
39033;DHT22;24794;51.982;5.878;2024-03-08T00:58:53;5.00;99.90
39033;DHT22;24794;51.982;5.878;2024-03-08T00:59:54;5.00;99.90
39033;DHT22;24794;51.982;5.878;2024-03-08T01:00:55;5.00;99.90
39033;DHT22;24794;51.982;5.878;2024-03-08T01:01:56;5.00;99.90
39033;DHT22;24794;51.982;5.878;2024-03-08T01:02:57;5.00;99.90
39033;DHT22;24794;51.982;5.878;2024-03-08T01:03:57;5.00;99.90
39033;DHT22;24794;51.982;5.878;2024-03-08T01:04:59;5.00;99.90
39033;DHT22;24794;51.982;5.878;2024-03-08T01:05:59;5.00;99.90
39033;DHT22;24794;51.982;5.878;2024-03-08T01:07:01;5.00;99.90
39033;DHT22;24794;51.982;5.878;2024-03-08T01:08:02;5.00;99.90
39033;DHT22;24794;51.982;5.878;2024-03-08T01:09:03;4.90;99.90
39033;DHT22;24794;51.982;5.878;2024-03-08T01:10:04;4.90;99.90
39033;DHT22;24794;51.982;5.878;2024-03-08T01:11:05;4.90;99.90
39033;DHT22;24794;51.982;5.878;2024-03-08T01:12:05;4.90;99.90
39033;DHT22;24794;51.982;5.878;2024-03-08T01:13:07;4.90;99.90
39033;DHT22;24794;51.982;5.878;2024-03-08T01:14:09;5.00;99.90
39033;DHT22;24794;51.982;5.878;2024-03-08T01:15:10;4.90;99.90
39033;DHT22;24794;51.982;5.878;2024-03-08T01:16:10;4.90;99.90
39033;DHT22;24794;51.982;5.878;2024-03-08T01:17:11;4.90;99.90
39033;DHT22;24794;51.982;5.878;2024-03-08T01:18:13;4.90;99.90
39033;DHT22;24794;51.982;5.878;2024-03-08T01:19:13;4.90;99.90
39033;DHT22;24794;51.982;5.878;2024-03-08T01:20:14;4.90;99.90
39033;DHT22;24794;51.982;5.878;2024-03-08T01:21:15;4.90;99.90
39033;DHT22;24794;51.982;5.878;2024-03-08T01:22:16;4.90;99.90
39033;DHT22;24794;51.982;5.878;2024-03-08T01:23:16;4.90;99.90
39033;DHT22;24794;51.982;5.878;2024-03-08T01:24:17;4.90;99.90
39033;DHT22;24794;51.982;5.878;2024-03-08T01:25:18;4.90;99.90
39033;DHT22;24794;51.982;5.878;2024-03-08T01:26:18;4.90;99.90
39033;DHT22;24794;51.982;5.878;2024-03-08T01:27:19;4.80;99.90
39033;DHT22;24794;51.982;5.878;2024-03-08T01:28:19;4.80;99.90
39033;DHT22;24794;51.982;5.878;2024-03-08T01:29:20;4.80;99.90
39033;DHT22;24794;51.982;5.878;2024-03-08T01:30:21;4.80;99.90
39033;DHT22;24794;51.982;5.878;2024-03-08T01:31:21;4.80;99.90
39033;DHT22;24794;51.982;5.878;2024-03-08T01:32:22;4.80;99.90
39033;DHT22;24794;51.982;5.878;2024-03-08T01:33:24;4.80;99.90
39033;DHT22;24794;51.982;5.878;2024-03-08T01:34:25;4.80;99.90
39033;DHT22;24794;51.982;5.878;2024-03-08T01:35:28;4.80;99.90
39033;DHT22;24794;51.982;5.878;2024-03-08T01:36:29;4.80;99.90
39033;DHT22;24794;51.982;5.878;2024-03-08T01:37:29;4.80;99.90
39033;DHT22;24794;51.982;5.878;2024-03-08T01:38:30;4.80;99.90
39033;DHT22;24794;51.982;5.878;2024-03-08T01:39:30;4.80;99.90
39033;DHT22;24794;51.982;5.878;2024-03-08T01:40:32;4.80;99.90
39033;DHT22;24794;51.982;5.878;2024-03-08T01:41:33;4.80;99.90
39033;DHT22;24794;51.982;5.878;2024-03-08T01:42:34;4.80;99.90
39033;DHT22;24794;51.982;5.878;2024-03-08T01:43:37;4.80;99.90
39033;DHT22;24794;51.982;5.878;2024-03-08T01:44:39;4.80;99.90
39033;DHT22;24794;51.982;5.878;2024-03-08T01:45:39;4.80;99.90
39033;DHT22;24794;51.982;5.878;2024-03-08T01:46:41;4.80;99.90
39033;DHT22;24794;51.982;5.878;2024-03-08T01:47:41;4.80;99.90
39033;DHT22;24794;51.982;5.878;2024-03-08T01:48:42;4.80;99.90
39033;DHT22;24794;51.982;5.878;2024-03-08T01:49:43;4.80;99.90
39033;DHT22;24794;51.982;5.878;2024-03-08T01:50:45;4.80;99.90
39033;DHT22;24794;51.982;5.878;2024-03-08T01:51:46;4.70;99.90
39033;DHT22;24794;51.982;5.878;2024-03-08T01:52:47;4.70;99.90
39033;DHT22;24794;51.982;5.878;2024-03-08T01:53:48;4.70;99.90
39033;DHT22;24794;51.982;5.878;2024-03-08T01:54:49;4.70;99.90
39033;DHT22;24794;51.982;5.878;2024-03-08T01:55:50;4.70;99.90
39033;DHT22;24794;51.982;5.878;2024-03-08T01:56:52;4.70;99.90
39033;DHT22;24794;51.982;5.878;2024-03-08T01:57:53;4.70;99.90
39033;DHT22;24794;51.982;5.878;2024-03-08T01:58:54;4.70;99.90
39033;DHT22;24794;51.982;5.878;2024-03-08T01:59:55;4.70;99.90
39033;DHT22;24794;51.982;5.878;2024-03-08T02:00:56;4.70;99.90
39033;DHT22;24794;51.982;5.878;2024-03-08T02:02:01;4.70;99.90
39033;DHT22;24794;51.982;5.878;2024-03-08T02:03:03;4.70;99.90
39033;DHT22;24794;51.982;5.878;2024-03-08T02:04:04;4.70;99.90
39033;DHT22;24794;51.982;5.878;2024-03-08T02:05:07;4.70;99.90
39033;DHT22;24794;51.982;5.878;2024-03-08T02:06:08;4.70;99.90
39033;DHT22;24794;51.982;5.878;2024-03-08T02:07:10;4.70;99.90
39033;DHT22;24794;51.982;5.878;2024-03-08T02:08:11;4.70;99.90
39033;DHT22;24794;51.982;5.878;2024-03-08T02:09:14;4.70;99.90
39033;DHT22;24794;51.982;5.878;2024-03-08T02:10:15;4.70;99.90
39033;DHT22;24794;51.982;5.878;2024-03-08T02:11:16;4.70;99.90
39033;DHT22;24794;51.982;5.878;2024-03-08T02:12:16;4.70;99.90
39033;DHT22;24794;51.982;5.878;2024-03-08T02:13:17;4.70;99.90
39033;DHT22;24794;51.982;5.878;2024-03-08T02:14:17;4.70;99.90
39033;DHT22;24794;51.982;5.878;2024-03-08T02:15:19;4.70;99.90
39033;DHT22;24794;51.982;5.878;2024-03-08T02:16:21;4.60;99.90
39033;DHT22;24794;51.982;5.878;2024-03-08T02:17:22;4.60;99.90
39033;DHT22;24794;51.982;5.878;2024-03-08T02:18:23;4.70;99.90
39033;DHT22;24794;51.982;5.878;2024-03-08T02:19:24;4.60;99.90
39033;DHT22;24794;51.982;5.878;2024-03-08T02:20:28;4.60;99.90
39033;DHT22;24794;51.982;5.878;2024-03-08T02:21:29;4.60;99.90
39033;DHT22;24794;51.982;5.878;2024-03-08T02:22:31;4.60;99.90
39033;DHT22;24794;51.982;5.878;2024-03-08T02:23:34;4.60;99.90
39033;DHT22;24794;51.982;5.878;2024-03-08T02:24:35;4.60;99.90
39033;DHT22;24794;51.982;5.878;2024-03-08T02:25:36;4.60;99.90
39033;DHT22;24794;51.982;5.878;2024-03-08T02:26:36;4.50;99.90
39033;DHT22;24794;51.982;5.878;2024-03-08T02:27:37;4.50;99.90
39033;DHT22;24794;51.982;5.878;2024-03-08T02:28:38;4.60;99.90
39033;DHT22;24794;51.982;5.878;2024-03-08T02:29:40;4.50;99.90
39033;DHT22;24794;51.982;5.878;2024-03-08T02:30:42;4.50;99.90
39033;DHT22;24794;51.982;5.878;2024-03-08T02:31:43;4.50;99.90
39033;DHT22;24794;51.982;5.878;2024-03-08T02:32:43;4.50;99.90
39033;DHT22;24794;51.982;5.878;2024-03-08T02:33:44;4.50;99.90
39033;DHT22;24794;51.982;5.878;2024-03-08T02:34:47;4.50;99.90
39033;DHT22;24794;51.982;5.878;2024-03-08T02:35:49;4.50;99.90
39033;DHT22;24794;51.982;5.878;2024-03-08T02:36:49;4.40;99.90
39033;DHT22;24794;51.982;5.878;2024-03-08T02:37:50;4.40;99.90
39033;DHT22;24794;51.982;5.878;2024-03-08T02:38:50;4.40;99.90
39033;DHT22;24794;51.982;5.878;2024-03-08T02:39:51;4.40;99.90
39033;DHT22;24794;51.982;5.878;2024-03-08T02:40:52;4.40;99.90
39033;DHT22;24794;51.982;5.878;2024-03-08T02:41:53;4.30;99.90
39033;DHT22;24794;51.982;5.878;2024-03-08T02:42:53;4.30;99.90
39033;DHT22;24794;51.982;5.878;2024-03-08T02:43:54;4.30;99.90
39033;DHT22;24794;51.982;5.878;2024-03-08T02:44:55;4.30;99.90
39033;DHT22;24794;51.982;5.878;2024-03-08T02:45:56;4.30;99.90
39033;DHT22;24794;51.982;5.878;2024-03-08T02:46:56;4.30;99.90
39033;DHT22;24794;51.982;5.878;2024-03-08T02:47:57;4.30;99.90
39033;DHT22;24794;51.982;5.878;2024-03-08T02:48:57;4.20;99.90
39033;DHT22;24794;51.982;5.878;2024-03-08T02:49:58;4.20;99.90
39033;DHT22;24794;51.982;5.878;2024-03-08T02:50:59;4.20;99.90
39033;DHT22;24794;51.982;5.878;2024-03-08T02:51:59;4.20;99.90
39033;DHT22;24794;51.982;5.878;2024-03-08T02:53:03;4.20;99.90
39033;DHT22;24794;51.982;5.878;2024-03-08T02:54:04;4.20;99.90
39033;DHT22;24794;51.982;5.878;2024-03-08T02:55:05;4.20;99.90
39033;DHT22;24794;51.982;5.878;2024-03-08T02:56:06;4.20;99.90
39033;DHT22;24794;51.982;5.878;2024-03-08T02:57:11;4.20;99.90
39033;DHT22;24794;51.982;5.878;2024-03-08T02:58:12;4.20;99.90
39033;DHT22;24794;51.982;5.878;2024-03-08T02:59:14;4.20;99.90
39033;DHT22;24794;51.982;5.878;2024-03-08T03:00:15;4.20;99.90
39033;DHT22;24794;51.982;5.878;2024-03-08T03:01:16;4.20;99.90
39033;DHT22;24794;51.982;5.878;2024-03-08T03:02:16;4.20;99.90
39033;DHT22;24794;51.982;5.878;2024-03-08T03:03:17;4.20;99.90
39033;DHT22;24794;51.982;5.878;2024-03-08T03:04:17;4.20;99.90
39033;DHT22;24794;51.982;5.878;2024-03-08T03:05:18;4.20;99.90
39033;DHT22;24794;51.982;5.878;2024-03-08T03:06:19;4.20;99.90
39033;DHT22;24794;51.982;5.878;2024-03-08T03:07:21;4.20;99.90
39033;DHT22;24794;51.982;5.878;2024-03-08T03:08:22;4.20;99.90
39033;DHT22;24794;51.982;5.878;2024-03-08T03:09:22;4.10;99.90
39033;DHT22;24794;51.982;5.878;2024-03-08T03:10:27;4.20;99.90
39033;DHT22;24794;51.982;5.878;2024-03-08T03:11:28;4.10;99.90
39033;DHT22;24794;51.982;5.878;2024-03-08T03:12:29;4.10;99.90
39033;DHT22;24794;51.982;5.878;2024-03-08T03:13:30;4.10;99.90
39033;DHT22;24794;51.982;5.878;2024-03-08T03:14:31;4.10;99.90
39033;DHT22;24794;51.982;5.878;2024-03-08T03:15:31;4.00;99.90
39033;DHT22;24794;51.982;5.878;2024-03-08T03:16:32;4.00;99.90
39033;DHT22;24794;51.982;5.878;2024-03-08T03:17:32;4.00;99.90
39033;DHT22;24794;51.982;5.878;2024-03-08T03:18:33;4.00;99.90
39033;DHT22;24794;51.982;5.878;2024-03-08T03:19:33;4.00;99.90
39033;DHT22;24794;51.982;5.878;2024-03-08T03:20:35;4.00;99.90
39033;DHT22;24794;51.982;5.878;2024-03-08T03:21:43;4.00;99.90
39033;DHT22;24794;51.982;5.878;2024-03-08T03:22:43;4.00;99.90
39033;DHT22;24794;51.982;5.878;2024-03-08T03:23:50;3.90;99.90
39033;DHT22;24794;51.982;5.878;2024-03-08T03:24:51;3.90;99.90
39033;DHT22;24794;51.982;5.878;2024-03-08T03:25:52;3.90;99.90
39033;DHT22;24794;51.982;5.878;2024-03-08T03:26:52;3.90;99.90
39033;DHT22;24794;51.982;5.878;2024-03-08T03:27:53;3.90;99.90
39033;DHT22;24794;51.982;5.878;2024-03-08T03:28:56;3.90;99.90
39033;DHT22;24794;51.982;5.878;2024-03-08T03:29:57;3.90;99.90
39033;DHT22;24794;51.982;5.878;2024-03-08T03:30:58;3.90;99.90
39033;DHT22;24794;51.982;5.878;2024-03-08T03:31:59;4.00;99.90
39033;DHT22;24794;51.982;5.878;2024-03-08T03:33:00;4.00;99.90
39033;DHT22;24794;51.982;5.878;2024-03-08T03:34:00;4.00;99.90
39033;DHT22;24794;51.982;5.878;2024-03-08T03:35:04;4.00;99.90
39033;DHT22;24794;51.982;5.878;2024-03-08T03:36:05;4.00;99.90
39033;DHT22;24794;51.982;5.878;2024-03-08T03:37:09;3.90;99.90
39033;DHT22;24794;51.982;5.878;2024-03-08T03:38:12;4.00;99.90
39033;DHT22;24794;51.982;5.878;2024-03-08T03:39:14;3.90;99.90
39033;DHT22;24794;51.982;5.878;2024-03-08T03:40:16;3.90;99.90
39033;DHT22;24794;51.982;5.878;2024-03-08T03:41:19;3.90;99.90
39033;DHT22;24794;51.982;5.878;2024-03-08T03:42:19;3.90;99.90
39033;DHT22;24794;51.982;5.878;2024-03-08T03:43:20;3.90;99.90
39033;DHT22;24794;51.982;5.878;2024-03-08T03:44:20;3.90;99.90
39033;DHT22;24794;51.982;5.878;2024-03-08T03:45:24;3.90;99.90
39033;DHT22;24794;51.982;5.878;2024-03-08T03:46:24;3.90;99.90
39033;DHT22;24794;51.982;5.878;2024-03-08T03:47:27;3.90;99.90
39033;DHT22;24794;51.982;5.878;2024-03-08T03:48:28;3.90;99.90
39033;DHT22;24794;51.982;5.878;2024-03-08T03:49:28;3.90;99.90
39033;DHT22;24794;51.982;5.878;2024-03-08T03:50:29;3.80;99.90
39033;DHT22;24794;51.982;5.878;2024-03-08T03:51:30;3.80;99.90
39033;DHT22;24794;51.982;5.878;2024-03-08T03:52:30;3.80;99.90
39033;DHT22;24794;51.982;5.878;2024-03-08T03:53:31;3.80;99.90
39033;DHT22;24794;51.982;5.878;2024-03-08T03:54:32;3.80;99.90
39033;DHT22;24794;51.982;5.878;2024-03-08T03:55:34;3.80;99.90
39033;DHT22;24794;51.982;5.878;2024-03-08T03:56:35;3.80;99.90
39033;DHT22;24794;51.982;5.878;2024-03-08T03:57:35;3.80;99.90
39033;DHT22;24794;51.982;5.878;2024-03-08T03:58:36;3.80;99.90
39033;DHT22;24794;51.982;5.878;2024-03-08T03:59:36;3.80;99.90
39033;DHT22;24794;51.982;5.878;2024-03-08T04:00:37;3.80;99.90
39033;DHT22;24794;51.982;5.878;2024-03-08T04:01:42;3.80;99.90
39033;DHT22;24794;51.982;5.878;2024-03-08T04:02:42;3.80;99.90
39033;DHT22;24794;51.982;5.878;2024-03-08T04:03:43;3.80;99.90
39033;DHT22;24794;51.982;5.878;2024-03-08T04:04:43;3.80;99.90
39033;DHT22;24794;51.982;5.878;2024-03-08T04:05:46;3.90;99.90
39033;DHT22;24794;51.982;5.878;2024-03-08T04:06:46;3.90;99.90
39033;DHT22;24794;51.982;5.878;2024-03-08T04:07:48;3.90;99.90
39033;DHT22;24794;51.982;5.878;2024-03-08T04:08:48;3.90;99.90
39033;DHT22;24794;51.982;5.878;2024-03-08T04:09:49;3.90;99.90
39033;DHT22;24794;51.982;5.878;2024-03-08T04:10:50;3.90;99.90
39033;DHT22;24794;51.982;5.878;2024-03-08T04:11:51;3.90;99.90
39033;DHT22;24794;51.982;5.878;2024-03-08T04:12:53;3.90;99.90
39033;DHT22;24794;51.982;5.878;2024-03-08T04:13:53;3.90;99.90
39033;DHT22;24794;51.982;5.878;2024-03-08T04:14:55;3.80;99.90
39033;DHT22;24794;51.982;5.878;2024-03-08T04:15:56;3.80;99.90
39033;DHT22;24794;51.982;5.878;2024-03-08T04:16:56;3.90;99.90
39033;DHT22;24794;51.982;5.878;2024-03-08T04:17:57;3.80;99.90
39033;DHT22;24794;51.982;5.878;2024-03-08T04:18:58;3.80;99.90
39033;DHT22;24794;51.982;5.878;2024-03-08T04:19:58;3.80;99.90
39033;DHT22;24794;51.982;5.878;2024-03-08T04:20:59;3.80;99.90
39033;DHT22;24794;51.982;5.878;2024-03-08T04:22:00;3.80;99.90
39033;DHT22;24794;51.982;5.878;2024-03-08T04:23:02;3.80;99.90
39033;DHT22;24794;51.982;5.878;2024-03-08T04:24:02;3.80;99.90
39033;DHT22;24794;51.982;5.878;2024-03-08T04:25:03;3.80;99.90
39033;DHT22;24794;51.982;5.878;2024-03-08T04:26:04;3.80;99.90
39033;DHT22;24794;51.982;5.878;2024-03-08T04:27:06;3.80;99.90
39033;DHT22;24794;51.982;5.878;2024-03-08T04:28:07;3.80;99.90
39033;DHT22;24794;51.982;5.878;2024-03-08T04:29:07;3.80;99.90
39033;DHT22;24794;51.982;5.878;2024-03-08T04:30:08;3.70;99.90
39033;DHT22;24794;51.982;5.878;2024-03-08T04:31:09;3.70;99.90
39033;DHT22;24794;51.982;5.878;2024-03-08T04:32:10;3.70;99.90
39033;DHT22;24794;51.982;5.878;2024-03-08T04:33:13;3.70;99.90
39033;DHT22;24794;51.982;5.878;2024-03-08T04:34:18;3.70;99.90
39033;DHT22;24794;51.982;5.878;2024-03-08T04:35:19;3.70;99.90
39033;DHT22;24794;51.982;5.878;2024-03-08T04:36:20;3.70;99.90
39033;DHT22;24794;51.982;5.878;2024-03-08T04:37:21;3.70;99.90
39033;DHT22;24794;51.982;5.878;2024-03-08T04:38:22;3.70;99.90
39033;DHT22;24794;51.982;5.878;2024-03-08T04:39:23;3.70;99.90
39033;DHT22;24794;51.982;5.878;2024-03-08T04:40:24;3.70;99.90
39033;DHT22;24794;51.982;5.878;2024-03-08T04:41:24;3.70;99.90
39033;DHT22;24794;51.982;5.878;2024-03-08T04:42:25;3.70;99.90
39033;DHT22;24794;51.982;5.878;2024-03-08T04:43:28;3.70;99.90
39033;DHT22;24794;51.982;5.878;2024-03-08T04:44:31;3.70;99.90
39033;DHT22;24794;51.982;5.878;2024-03-08T04:45:31;3.70;99.90
39033;DHT22;24794;51.982;5.878;2024-03-08T04:46:32;3.70;99.90
39033;DHT22;24794;51.982;5.878;2024-03-08T04:47:33;3.70;99.90
39033;DHT22;24794;51.982;5.878;2024-03-08T04:48:33;3.70;99.90
39033;DHT22;24794;51.982;5.878;2024-03-08T04:49:34;3.70;99.90
39033;DHT22;24794;51.982;5.878;2024-03-08T04:50:35;3.70;99.90
39033;DHT22;24794;51.982;5.878;2024-03-08T04:51:35;3.60;99.90
39033;DHT22;24794;51.982;5.878;2024-03-08T04:52:36;3.70;99.90
39033;DHT22;24794;51.982;5.878;2024-03-08T04:53:36;3.60;99.90
39033;DHT22;24794;51.982;5.878;2024-03-08T04:54:37;3.70;99.90
39033;DHT22;24794;51.982;5.878;2024-03-08T04:55:37;3.60;99.90
39033;DHT22;24794;51.982;5.878;2024-03-08T04:56:38;3.70;99.90
39033;DHT22;24794;51.982;5.878;2024-03-08T04:57:39;3.60;99.90
39033;DHT22;24794;51.982;5.878;2024-03-08T04:58:40;3.60;99.90
39033;DHT22;24794;51.982;5.878;2024-03-08T04:59:40;3.60;99.90
39033;DHT22;24794;51.982;5.878;2024-03-08T05:00:41;3.60;99.90
39033;DHT22;24794;51.982;5.878;2024-03-08T05:01:41;3.60;99.90
39033;DHT22;24794;51.982;5.878;2024-03-08T05:02:42;3.60;99.90
39033;DHT22;24794;51.982;5.878;2024-03-08T05:03:42;3.60;99.90
39033;DHT22;24794;51.982;5.878;2024-03-08T05:04:44;3.60;99.90
39033;DHT22;24794;51.982;5.878;2024-03-08T05:05:44;3.60;99.90
39033;DHT22;24794;51.982;5.878;2024-03-08T05:06:45;3.60;99.90
39033;DHT22;24794;51.982;5.878;2024-03-08T05:07:45;3.60;99.90
39033;DHT22;24794;51.982;5.878;2024-03-08T05:08:46;3.60;99.90
39033;DHT22;24794;51.982;5.878;2024-03-08T05:09:46;3.60;99.90
39033;DHT22;24794;51.982;5.878;2024-03-08T05:10:51;3.60;99.90
39033;DHT22;24794;51.982;5.878;2024-03-08T05:11:52;3.60;99.90
39033;DHT22;24794;51.982;5.878;2024-03-08T05:12:52;3.60;99.90
39033;DHT22;24794;51.982;5.878;2024-03-08T05:13:53;3.60;99.90
39033;DHT22;24794;51.982;5.878;2024-03-08T05:14:54;3.60;99.90
39033;DHT22;24794;51.982;5.878;2024-03-08T05:15:55;3.60;99.90
39033;DHT22;24794;51.982;5.878;2024-03-08T05:16:58;3.60;99.90
39033;DHT22;24794;51.982;5.878;2024-03-08T05:17:59;3.60;99.90
39033;DHT22;24794;51.982;5.878;2024-03-08T05:19:00;3.60;99.90
39033;DHT22;24794;51.982;5.878;2024-03-08T05:20:00;3.60;99.90
39033;DHT22;24794;51.982;5.878;2024-03-08T05:21:01;3.60;99.90
39033;DHT22;24794;51.982;5.878;2024-03-08T05:22:04;3.60;99.90
39033;DHT22;24794;51.982;5.878;2024-03-08T05:23:05;3.60;99.90
39033;DHT22;24794;51.982;5.878;2024-03-08T05:24:05;3.60;99.90
39033;DHT22;24794;51.982;5.878;2024-03-08T05:25:06;3.60;99.90
39033;DHT22;24794;51.982;5.878;2024-03-08T05:26:08;3.60;99.90
39033;DHT22;24794;51.982;5.878;2024-03-08T05:27:09;3.60;99.90
39033;DHT22;24794;51.982;5.878;2024-03-08T05:28:09;3.60;99.90
39033;DHT22;24794;51.982;5.878;2024-03-08T05:29:10;3.60;99.90
39033;DHT22;24794;51.982;5.878;2024-03-08T05:30:11;3.60;99.90
39033;DHT22;24794;51.982;5.878;2024-03-08T05:31:21;3.60;99.90
39033;DHT22;24794;51.982;5.878;2024-03-08T05:32:25;3.60;99.90
39033;DHT22;24794;51.982;5.878;2024-03-08T05:33:26;3.60;99.90
39033;DHT22;24794;51.982;5.878;2024-03-08T05:34:27;3.60;99.90
39033;DHT22;24794;51.982;5.878;2024-03-08T05:35:29;3.60;99.90
39033;DHT22;24794;51.982;5.878;2024-03-08T05:36:29;3.50;99.90
39033;DHT22;24794;51.982;5.878;2024-03-08T05:37:30;3.50;99.90
39033;DHT22;24794;51.982;5.878;2024-03-08T05:38:31;3.50;99.90
39033;DHT22;24794;51.982;5.878;2024-03-08T05:39:32;3.50;99.90
39033;DHT22;24794;51.982;5.878;2024-03-08T05:40:33;3.50;99.90
39033;DHT22;24794;51.982;5.878;2024-03-08T05:41:33;3.50;99.90
39033;DHT22;24794;51.982;5.878;2024-03-08T05:42:35;3.50;99.90
39033;DHT22;24794;51.982;5.878;2024-03-08T05:43:36;3.50;99.90
39033;DHT22;24794;51.982;5.878;2024-03-08T05:44:37;3.50;99.90
39033;DHT22;24794;51.982;5.878;2024-03-08T05:45:38;3.50;99.90
39033;DHT22;24794;51.982;5.878;2024-03-08T05:46:39;3.50;99.90
39033;DHT22;24794;51.982;5.878;2024-03-08T05:47:40;3.60;99.90
39033;DHT22;24794;51.982;5.878;2024-03-08T05:48:40;3.60;99.90
39033;DHT22;24794;51.982;5.878;2024-03-08T05:49:41;3.50;99.90
39033;DHT22;24794;51.982;5.878;2024-03-08T05:50:44;3.60;99.90
39033;DHT22;24794;51.982;5.878;2024-03-08T05:51:45;3.50;99.90
39033;DHT22;24794;51.982;5.878;2024-03-08T05:52:47;3.50;99.90
39033;DHT22;24794;51.982;5.878;2024-03-08T05:53:48;3.50;99.90
39033;DHT22;24794;51.982;5.878;2024-03-08T05:54:49;3.50;99.90
39033;DHT22;24794;51.982;5.878;2024-03-08T05:55:49;3.50;99.90
39033;DHT22;24794;51.982;5.878;2024-03-08T05:56:50;3.50;99.90
39033;DHT22;24794;51.982;5.878;2024-03-08T05:57:53;3.50;99.90
39033;DHT22;24794;51.982;5.878;2024-03-08T05:58:54;3.50;99.90
39033;DHT22;24794;51.982;5.878;2024-03-08T05:59:54;3.50;99.90
39033;DHT22;24794;51.982;5.878;2024-03-08T06:00:55;3.50;99.90
39033;DHT22;24794;51.982;5.878;2024-03-08T06:01:56;3.50;99.90
39033;DHT22;24794;51.982;5.878;2024-03-08T06:02:57;3.50;99.90
39033;DHT22;24794;51.982;5.878;2024-03-08T06:03:59;3.50;99.90
39033;DHT22;24794;51.982;5.878;2024-03-08T06:04:59;3.50;99.90
39033;DHT22;24794;51.982;5.878;2024-03-08T06:06:02;3.40;99.90
39033;DHT22;24794;51.982;5.878;2024-03-08T06:07:03;3.40;99.90
39033;DHT22;24794;51.982;5.878;2024-03-08T06:08:04;3.40;99.90
39033;DHT22;24794;51.982;5.878;2024-03-08T06:09:05;3.50;99.90
39033;DHT22;24794;51.982;5.878;2024-03-08T06:10:17;3.40;99.90
39033;DHT22;24794;51.982;5.878;2024-03-08T06:11:19;3.40;99.90
39033;DHT22;24794;51.982;5.878;2024-03-08T06:12:20;3.40;99.90
39033;DHT22;24794;51.982;5.878;2024-03-08T06:13:21;3.40;99.90
39033;DHT22;24794;51.982;5.878;2024-03-08T06:14:21;3.40;99.90
39033;DHT22;24794;51.982;5.878;2024-03-08T06:15:23;3.40;99.90
39033;DHT22;24794;51.982;5.878;2024-03-08T06:16:24;3.40;99.90
39033;DHT22;24794;51.982;5.878;2024-03-08T06:17:25;3.40;99.90
39033;DHT22;24794;51.982;5.878;2024-03-08T06:18:26;3.40;99.90
39033;DHT22;24794;51.982;5.878;2024-03-08T06:19:26;3.40;99.90
39033;DHT22;24794;51.982;5.878;2024-03-08T06:20:27;3.40;99.90
39033;DHT22;24794;51.982;5.878;2024-03-08T06:21:27;3.50;99.90
39033;DHT22;24794;51.982;5.878;2024-03-08T06:22:28;3.40;99.90
39033;DHT22;24794;51.982;5.878;2024-03-08T06:23:33;3.40;99.90
39033;DHT22;24794;51.982;5.878;2024-03-08T06:24:34;3.40;99.90
39033;DHT22;24794;51.982;5.878;2024-03-08T06:25:37;3.40;99.90
39033;DHT22;24794;51.982;5.878;2024-03-08T06:26:37;3.40;99.90
39033;DHT22;24794;51.982;5.878;2024-03-08T06:27:38;3.40;99.90
39033;DHT22;24794;51.982;5.878;2024-03-08T06:28:38;3.40;99.90
39033;DHT22;24794;51.982;5.878;2024-03-08T06:29:39;3.40;99.90
39033;DHT22;24794;51.982;5.878;2024-03-08T06:30:40;3.40;99.90
39033;DHT22;24794;51.982;5.878;2024-03-08T06:31:41;3.40;99.90
39033;DHT22;24794;51.982;5.878;2024-03-08T06:32:42;3.40;99.90